createdAt,value
2019-03-28T00:01:10.059Z,15.10
2019-03-28T00:03:38.513Z,16.33
2019-03-28T00:06:06.980Z,19.27
2019-03-28T00:08:35.437Z,9.73
2019-03-28T00:11:04.028Z,24.43
2019-03-28T00:13:32.462Z,15.57
2019-03-28T00:16:00.933Z,17.23
2019-03-28T00:18:29.370Z,15.27
2019-03-28T00:20:57.809Z,25.03
2019-03-28T00:23:30.820Z,15.37
2019-03-28T00:25:59.257Z,14.60
2019-03-28T00:28:27.778Z,15.70
2019-03-28T00:30:56.299Z,22.43
2019-03-28T00:33:24.751Z,29.03
2019-03-28T00:35:53.202Z,22.47
2019-03-28T00:38:21.646Z,19.57
2019-03-28T00:40:50.122Z,29.80
2019-03-28T00:43:18.591Z,19.80
2019-03-28T00:45:47.022Z,24.23
2019-03-28T00:48:15.478Z,30.43
2019-03-28T00:50:43.926Z,23.17
2019-03-28T00:53:12.386Z,23.33
2019-03-28T00:55:41.103Z,19.73
2019-03-28T00:58:09.551Z,24.03
2019-03-28T01:00:38.025Z,26.90
2019-03-28T01:03:06.475Z,25.60
2019-03-28T01:05:34.921Z,34.23
2019-03-28T01:08:06.046Z,19.97
2019-03-28T01:10:35.071Z,31.40
2019-03-28T01:13:03.613Z,25.30
2019-03-28T01:15:32.102Z,26.30
2019-03-28T01:18:00.550Z,31.70
2019-03-28T01:20:28.992Z,46.40
2019-03-28T01:22:57.471Z,33.17
2019-03-28T01:25:27.669Z,31.60
2019-03-28T01:27:57.989Z,33.50
2019-03-28T01:30:26.643Z,32.83
2019-03-28T01:32:56.558Z,39.73
2019-03-28T01:35:26.095Z,32.67
2019-03-28T01:37:54.563Z,37.30
2019-03-28T01:40:23.016Z,45.00
2019-03-28T01:42:51.474Z,42.27
2019-03-28T01:45:20.305Z,48.30
2019-03-28T01:47:48.748Z,43.47
2019-03-28T01:50:17.219Z,45.50
2019-03-28T01:52:45.688Z,46.77
2019-03-28T01:55:14.147Z,41.57
2019-03-28T01:57:42.616Z,37.47
2019-03-28T02:00:13.210Z,37.07
2019-03-28T02:02:43.606Z,43.27
2019-03-28T02:05:12.308Z,41.40
2019-03-28T02:07:40.756Z,45.93
2019-03-28T02:10:09.562Z,41.93
2019-03-28T02:12:38.010Z,34.47
2019-03-28T02:15:11.149Z,42.13
2019-03-28T02:17:39.647Z,45.80
2019-03-28T02:20:08.882Z,46.53
2019-03-28T02:22:37.410Z,45.13
2019-03-28T02:25:07.907Z,55.93
2019-03-28T02:27:36.404Z,56.63
2019-03-28T02:30:07.700Z,61.80
2019-03-28T02:32:36.215Z,55.70
2019-03-28T02:35:05.629Z,60.60
2019-03-28T02:37:34.924Z,48.57
2019-03-28T02:40:04.736Z,47.17
2019-03-28T02:42:33.257Z,54.43
2019-03-28T02:45:02.119Z,50.40
2019-03-28T02:47:30.637Z,58.33
2019-03-28T02:49:59.657Z,54.87
2019-03-28T02:52:28.092Z,55.17
2019-03-28T02:54:57.816Z,56.53
2019-03-28T02:57:40.250Z,59.47
2019-03-28T02:59:57.179Z,47.03
2019-03-28T03:02:25.627Z,59.57
2019-03-28T03:04:56.323Z,65.20
2019-03-28T03:07:25.009Z,57.43
2019-03-28T03:09:54.776Z,69.17
2019-03-28T03:12:25.550Z,68.37
2019-03-28T03:14:54.054Z,58.40
2019-03-28T03:17:22.515Z,55.27
2019-03-28T03:19:53.828Z,54.47
2019-03-28T03:22:22.464Z,63.70
2019-03-28T03:24:50.904Z,72.33
2019-03-28T03:27:21.186Z,68.37
2019-03-28T03:29:49.776Z,73.63
2019-03-28T03:32:19.582Z,74.80
2019-03-28T03:34:48.134Z,82.27
2019-03-28T03:37:16.608Z,79.50
2019-03-28T03:39:47.351Z,91.20
2019-03-28T03:42:17.274Z,81.80
2019-03-28T03:44:45.895Z,80.97
2019-03-28T03:47:14.442Z,87.27
2019-03-28T03:49:42.945Z,93.10
2019-03-28T03:52:11.432Z,77.30
2019-03-28T03:54:39.863Z,90.27
2019-03-28T03:57:08.307Z,82.77
2019-03-28T03:59:37.530Z,102.40
2019-03-28T04:02:06.231Z,89.63
2019-03-28T04:04:34.737Z,84.60
2019-03-28T04:07:03.228Z,89.10
2019-03-28T04:09:31.823Z,86.63
2019-03-28T04:12:00.354Z,83.53
2019-03-28T04:14:28.886Z,86.57
2019-03-28T04:16:57.358Z,74.57
2019-03-28T04:19:26.226Z,81.33
2019-03-28T04:21:54.710Z,86.93
2019-03-28T04:24:23.149Z,88.70
2019-03-28T04:26:51.618Z,88.50
2019-03-28T04:29:20.057Z,85.30
2019-03-28T04:31:48.600Z,75.90
2019-03-28T04:34:17.063Z,89.07
2019-03-28T04:36:46.669Z,87.90
2019-03-28T04:39:15.120Z,78.70
2019-03-28T04:41:43.567Z,76.87
2019-03-28T04:44:12.014Z,83.30
2019-03-28T04:46:40.508Z,88.03
2019-03-28T04:49:09.208Z,77.30
2019-03-28T04:51:37.674Z,92.30
2019-03-28T04:54:06.131Z,85.33
2019-03-28T04:56:34.594Z,82.10
2019-03-28T04:59:04.004Z,78.27
2019-03-28T05:01:32.523Z,74.93
2019-03-28T05:04:00.969Z,79.47
2019-03-28T05:06:31.040Z,79.33
2019-03-28T05:09:00.467Z,79.50
2019-03-28T05:11:30.183Z,73.27
2019-03-28T05:13:58.737Z,82.73
2019-03-28T05:16:27.226Z,85.67
2019-03-28T05:18:55.742Z,73.30
2019-03-28T05:21:24.198Z,73.17
2019-03-28T05:23:52.649Z,84.47
2019-03-28T05:26:22.853Z,79.13
2019-03-28T05:28:57.427Z,84.20
2019-03-28T05:31:21.715Z,77.20
2019-03-28T05:33:50.166Z,84.90
2019-03-28T05:36:18.727Z,84.80
2019-03-28T05:38:48.512Z,76.53
2019-03-28T05:41:17.573Z,86.03
2019-03-28T05:43:46.104Z,78.33
2019-03-28T05:46:14.574Z,87.33
2019-03-28T05:48:43.069Z,87.67
2019-03-28T05:51:11.512Z,92.77
2019-03-28T05:53:43.817Z,87.00
2019-03-28T05:56:10.836Z,71.80
2019-03-28T05:58:39.315Z,80.40
2019-03-28T06:01:07.765Z,80.43
2019-03-28T06:03:36.313Z,77.37
2019-03-28T06:06:04.834Z,82.00
2019-03-28T06:08:33.311Z,65.30
2019-03-28T06:11:02.460Z,66.80
2019-03-28T06:13:31.151Z,60.80
2019-03-28T06:15:59.622Z,34.23
2019-03-28T06:18:28.147Z,45.37
2019-03-28T06:20:59.424Z,33.03
2019-03-28T06:23:26.770Z,43.10
2019-03-28T06:25:55.233Z,35.77
2019-03-28T06:28:25.939Z,40.17
2019-03-28T06:30:55.920Z,39.10
2019-03-28T06:33:24.570Z,39.63
2019-03-28T06:35:53.019Z,35.30
2019-03-28T06:38:21.468Z,32.90
2019-03-28T06:40:50.350Z,27.67
2019-03-28T06:43:18.797Z,28.60
2019-03-28T06:45:47.249Z,19.97
2019-03-28T06:48:15.857Z,15.03
2019-03-28T06:50:44.313Z,17.03
2019-03-28T06:53:14.210Z,23.23
2019-03-28T06:55:42.690Z,16.43
2019-03-28T06:58:11.144Z,16.40
2019-03-28T07:00:39.626Z,11.90
2019-03-28T07:03:08.071Z,18.10
2019-03-28T07:05:37.614Z,12.40
2019-03-28T07:08:07.778Z,14.60
2019-03-28T07:10:36.522Z,12.87
2019-03-28T07:13:05.110Z,14.60
2019-03-28T07:15:36.509Z,13.37
2019-03-28T07:18:03.929Z,14.93
2019-03-28T07:20:32.389Z,15.03
2019-03-28T07:23:00.839Z,11.00
2019-03-28T07:25:29.326Z,15.00
2019-03-28T07:27:57.790Z,12.53
2019-03-28T07:30:26.337Z,13.13
2019-03-28T07:32:54.808Z,9.07
2019-03-28T07:35:23.281Z,6.63
2019-03-28T07:37:51.768Z,9.60
2019-03-28T07:40:21.832Z,11.40
2019-03-28T07:42:50.462Z,7.00
2019-03-28T07:45:19.047Z,4.00
2019-03-28T07:47:47.483Z,10.37
2019-03-28T07:50:15.998Z,12.40
2019-03-28T07:52:44.629Z,6.87
2019-03-28T07:55:16.183Z,9.83
2019-03-28T07:57:43.339Z,7.87
2019-03-28T08:00:12.520Z,6.27
2019-03-28T08:02:41.009Z,10.97
2019-03-28T08:05:11.748Z,13.43
2019-03-28T08:07:45.424Z,8.17
2019-03-28T08:10:11.528Z,4.30
2019-03-28T08:12:39.986Z,10.47
2019-03-28T08:15:09.576Z,5.80
2019-03-28T08:17:38.020Z,9.53
2019-03-28T08:20:08.013Z,9.10
2019-03-28T08:22:37.626Z,6.73
2019-03-28T08:25:11.921Z,10.37
2019-03-28T08:27:47.309Z,9.03
2019-03-28T08:30:19.041Z,6.70
2019-03-28T08:32:46.563Z,7.67
2019-03-28T08:35:15.017Z,7.30
2019-03-28T08:37:43.919Z,13.97
2019-03-28T08:40:15.482Z,6.97
2019-03-28T08:42:43.936Z,10.03
2019-03-28T08:45:13.828Z,12.20
2019-03-28T08:47:42.533Z,7.87
2019-03-28T08:50:11.048Z,9.03
2019-03-28T08:52:42.046Z,8.50
2019-03-28T08:55:12.437Z,5.93
2019-03-28T08:57:40.911Z,6.00
2019-03-28T09:00:11.027Z,9.13
2019-03-28T09:02:39.484Z,6.20
2019-03-28T09:05:09.342Z,7.77
2019-03-28T09:07:38.090Z,9.00
2019-03-28T09:10:09.109Z,5.80
2019-03-28T09:12:39.724Z,6.20
2019-03-28T09:15:09.199Z,7.70
2019-03-28T09:17:37.640Z,4.20
2019-03-28T09:20:07.649Z,6.20
2019-03-28T09:22:38.789Z,3.63
2019-03-28T09:25:07.516Z,4.20
2019-03-28T09:27:35.967Z,6.23
2019-03-28T09:30:07.912Z,13.00
2019-03-28T09:32:36.775Z,6.57
2019-03-28T09:35:06.565Z,8.00
2019-03-28T09:37:35.021Z,14.60
2019-03-28T09:40:04.478Z,9.20
2019-03-28T09:42:32.926Z,11.00
2019-03-28T09:45:05.078Z,10.10
2019-03-28T09:47:33.590Z,12.83
2019-03-28T09:50:02.058Z,11.07
2019-03-28T09:52:30.590Z,13.77
2019-03-28T09:54:59.067Z,16.73
2019-03-28T09:57:27.523Z,16.10
2019-03-28T09:59:56.001Z,16.27
2019-03-28T10:02:24.524Z,14.47
2019-03-28T10:04:52.993Z,17.40
2019-03-28T10:07:21.449Z,15.80
2019-03-28T10:09:50.192Z,16.20
2019-03-28T10:12:18.933Z,18.12
2019-03-28T10:14:47.502Z,12.17
2019-03-28T10:17:16.064Z,15.40
2019-03-28T10:19:44.556Z,14.87
2019-03-28T10:22:13.375Z,16.40
2019-03-28T10:24:41.837Z,17.00
2019-03-28T10:27:10.303Z,14.47
2019-03-28T10:29:40.102Z,14.00
2019-03-28T10:32:08.576Z,17.63
2019-03-28T10:34:37.034Z,15.20
2019-03-28T10:37:05.535Z,14.87
2019-03-28T10:39:34.121Z,11.43
2019-03-28T10:42:02.562Z,17.50
2019-03-28T10:44:31.057Z,16.10
2019-03-28T10:46:59.493Z,13.07
2019-03-28T10:49:27.960Z,10.33
2019-03-28T10:51:56.410Z,8.63
2019-03-28T10:54:25.976Z,10.70
2019-03-28T10:56:57.917Z,13.87
2019-03-28T10:59:26.300Z,11.93
2019-03-28T11:01:54.750Z,8.33
2019-03-28T11:04:24.100Z,11.07
2019-03-28T11:06:52.571Z,11.80
2019-03-28T11:09:21.006Z,12.00
2019-03-28T11:11:49.533Z,10.47
2019-03-28T11:14:17.999Z,9.50
2019-03-28T11:16:48.259Z,11.10
2019-03-28T11:19:17.540Z,8.27
2019-03-28T11:21:46.216Z,10.07
2019-03-28T11:24:14.784Z,8.73
2019-03-28T11:26:43.227Z,7.77
2019-03-28T11:29:11.737Z,7.13
2019-03-28T11:31:46.118Z,15.13
2019-03-28T11:34:10.524Z,9.83
2019-03-28T11:36:39.053Z,16.53
2019-03-28T11:39:07.915Z,6.87
2019-03-28T11:41:36.378Z,10.97
2019-03-28T11:44:04.908Z,10.40
2019-03-28T11:46:33.411Z,5.57
2019-03-28T11:49:02.754Z,8.10
2019-03-28T11:51:31.294Z,7.67
2019-03-28T11:53:59.722Z,8.57
2019-03-28T11:56:28.184Z,9.53
2019-03-28T11:58:56.643Z,10.40
2019-03-28T12:01:25.106Z,8.93
2019-03-28T12:03:53.566Z,12.50
2019-03-28T12:06:22.142Z,5.67
2019-03-28T12:08:50.604Z,15.93
2019-03-28T12:11:19.078Z,9.80
2019-03-28T12:13:47.527Z,12.10
2019-03-28T12:16:16.998Z,11.03
2019-03-28T12:18:45.565Z,10.20
2019-03-28T12:21:14.023Z,10.53
2019-03-28T12:23:43.347Z,10.40
2019-03-28T12:26:12.120Z,15.40
2019-03-28T12:28:40.600Z,13.60
2019-03-28T12:31:09.245Z,11.40
2019-03-28T12:33:37.742Z,8.67
2019-03-28T12:36:07.056Z,9.93
2019-03-28T12:38:35.738Z,11.13
2019-03-28T12:41:04.339Z,14.07
2019-03-28T12:43:32.775Z,9.53
2019-03-28T12:46:01.352Z,13.63
2019-03-28T12:48:29.880Z,11.93
2019-03-28T12:50:59.293Z,8.80
2019-03-28T12:53:29.020Z,13.70
2019-03-28T12:55:57.962Z,12.63
2019-03-28T12:58:26.599Z,7.70
2019-03-28T13:00:55.122Z,10.07
2019-03-28T13:03:23.579Z,9.83
2019-03-28T13:05:52.075Z,10.83
2019-03-28T13:08:20.514Z,7.47
2019-03-28T13:10:48.982Z,7.20
2019-03-28T13:13:17.743Z,9.00
2019-03-28T13:15:46.241Z,6.13
2019-03-28T13:18:14.820Z,11.00
2019-03-28T13:20:44.001Z,13.53
2019-03-28T13:23:12.443Z,6.73
2019-03-28T13:25:40.914Z,10.33
2019-03-28T13:28:09.378Z,7.10
2019-03-28T13:30:37.831Z,7.70
2019-03-28T13:33:06.267Z,8.73
2019-03-28T13:35:35.414Z,6.93
2019-03-28T13:38:04.138Z,9.40
2019-03-28T13:40:32.580Z,7.20
2019-03-28T13:43:01.036Z,9.73
2019-03-28T13:45:29.802Z,9.63
2019-03-28T13:47:58.523Z,12.70
2019-03-28T13:50:27.068Z,9.60
2019-03-28T13:52:55.580Z,8.73
2019-03-28T13:55:24.021Z,11.17
2019-03-28T13:57:52.568Z,8.50
2019-03-28T14:00:32.263Z,10.33
2019-03-28T14:03:00.771Z,7.57
2019-03-28T14:05:29.232Z,18.80
2019-03-28T14:07:57.945Z,9.93
2019-03-28T14:10:26.391Z,8.20
2019-03-28T14:12:54.854Z,6.83
2019-03-28T14:15:23.296Z,13.27
2019-03-28T14:17:51.730Z,9.10
2019-03-28T14:20:22.354Z,14.57
2019-03-28T14:22:50.424Z,13.27
2019-03-28T14:25:18.868Z,7.73
2019-03-28T14:27:47.318Z,7.90
2019-03-28T14:30:16.107Z,10.03
2019-03-28T14:32:53.237Z,12.97
2019-03-28T14:35:14.722Z,9.43
2019-03-28T14:37:43.526Z,10.17
2019-03-28T14:40:12.311Z,12.90
2019-03-28T14:42:40.998Z,7.80
2019-03-28T14:45:09.923Z,12.40
2019-03-28T14:47:38.506Z,7.77
2019-03-28T14:50:07.722Z,12.03
2019-03-28T14:52:36.233Z,8.97
2019-03-28T14:55:05.021Z,12.93
2019-03-28T14:57:33.714Z,8.73
2019-03-28T15:00:04.172Z,7.03
2019-03-28T15:02:32.719Z,12.03
2019-03-28T15:05:01.149Z,6.90
2019-03-28T15:07:29.619Z,17.97
2019-03-28T15:09:58.066Z,6.53
2019-03-28T15:12:26.514Z,7.33
2019-03-28T15:14:54.966Z,12.30
2019-03-28T15:17:23.411Z,9.47
2019-03-28T15:19:51.858Z,7.40
2019-03-28T15:22:20.298Z,6.50
2019-03-28T15:24:48.740Z,6.00
2019-03-28T15:27:17.227Z,10.57
2019-03-28T15:29:45.668Z,5.87
2019-03-28T15:32:14.102Z,7.20
2019-03-28T15:34:42.564Z,9.03
2019-03-28T15:37:11.018Z,8.73
2019-03-28T15:39:39.459Z,9.33
2019-03-28T15:42:10.489Z,9.70
2019-03-28T15:44:39.513Z,10.27
2019-03-28T15:47:08.153Z,11.60
2019-03-28T15:49:36.586Z,10.57
2019-03-28T15:52:05.228Z,10.90
2019-03-28T15:54:34.058Z,11.17
2019-03-28T15:57:02.586Z,7.63
2019-03-28T15:59:31.023Z,7.40
2019-03-28T16:02:00.020Z,9.77
2019-03-28T16:04:28.571Z,6.43
2019-03-28T16:06:57.155Z,12.33
2019-03-28T16:09:25.637Z,8.33
2019-03-28T16:12:02.503Z,8.90
2019-03-28T16:14:24.449Z,12.93
2019-03-28T16:16:53.005Z,17.17
2019-03-28T16:19:27.269Z,10.23
2019-03-28T16:21:55.710Z,11.40
2019-03-28T16:24:24.171Z,13.40
2019-03-28T16:26:52.717Z,10.23
2019-03-28T16:29:21.259Z,8.93
2019-03-28T16:31:49.722Z,15.73
2019-03-28T16:34:18.155Z,9.27
2019-03-28T16:36:46.632Z,13.30
2019-03-28T16:39:15.071Z,10.13
2019-03-28T16:41:43.537Z,14.60
2019-03-28T16:44:11.990Z,12.53
2019-03-28T16:46:40.452Z,9.23
2019-03-28T16:49:08.906Z,17.23
2019-03-28T16:51:37.472Z,13.67
2019-03-28T16:54:05.929Z,9.27
2019-03-28T16:56:34.363Z,11.90
2019-03-28T16:59:03.075Z,11.03
2019-03-28T17:01:31.516Z,11.03
2019-03-28T17:03:59.976Z,9.80
2019-03-28T17:06:28.566Z,13.77
2019-03-28T17:08:57.933Z,12.20
2019-03-28T17:11:26.375Z,10.33
2019-03-28T17:13:54.834Z,12.27
2019-03-28T17:16:23.306Z,10.23
2019-03-28T17:18:52.013Z,11.90
2019-03-28T17:21:23.237Z,12.20
2019-03-28T17:23:50.702Z,12.27
2019-03-28T17:26:19.135Z,9.60
2019-03-28T17:28:47.572Z,10.00
2019-03-28T17:31:16.007Z,12.10
2019-03-28T17:33:44.490Z,11.93
2019-03-28T17:36:13.078Z,8.07
2019-03-28T17:38:41.599Z,8.33
2019-03-28T17:41:10.030Z,8.60
2019-03-28T17:43:38.491Z,6.53
2019-03-28T17:46:06.942Z,9.77
2019-03-28T17:48:35.463Z,12.73
2019-03-28T17:51:04.334Z,9.10
2019-03-28T17:53:32.777Z,7.77
2019-03-28T17:56:01.229Z,8.97
2019-03-28T17:58:29.664Z,10.10
2019-03-28T18:00:58.279Z,8.97
2019-03-28T18:03:31.419Z,13.60
2019-03-28T18:05:58.256Z,8.63
2019-03-28T18:08:27.155Z,7.87
2019-03-28T18:10:56.006Z,6.77
2019-03-28T18:13:24.630Z,7.53
2019-03-28T18:15:53.070Z,9.70
2019-03-28T18:18:21.522Z,10.93
2019-03-28T18:20:49.974Z,16.70
2019-03-28T18:23:18.412Z,9.30
2019-03-28T18:25:47.752Z,9.67
2019-03-28T18:28:16.192Z,10.27
2019-03-28T18:30:45.832Z,12.23
2019-03-28T18:33:14.626Z,11.23
2019-03-28T18:35:43.140Z,13.13
2019-03-28T18:38:11.606Z,9.50
2019-03-28T18:40:57.936Z,9.50
2019-03-28T18:43:26.375Z,9.23
2019-03-28T18:45:54.823Z,8.60
2019-03-28T18:48:29.578Z,9.77
2019-03-28T18:50:54.651Z,13.73
2019-03-28T18:53:23.087Z,9.10
2019-03-28T18:55:51.547Z,9.53
2019-03-28T18:58:19.982Z,9.07
2019-03-28T19:00:48.855Z,9.20
2019-03-28T19:03:17.371Z,9.37
2019-03-28T19:05:45.848Z,8.43
2019-03-28T19:08:14.270Z,8.43
2019-03-28T19:10:42.742Z,8.67
2019-03-28T19:13:11.264Z,7.50
2019-03-28T19:15:39.773Z,7.87
2019-03-28T19:18:08.223Z,15.60
2019-03-28T19:20:36.680Z,8.80
2019-03-28T19:23:07.214Z,9.77
2019-03-28T19:25:35.381Z,11.67
2019-03-28T19:28:03.832Z,9.67
2019-03-28T19:30:33.571Z,7.60
2019-03-28T19:33:02.240Z,9.90
2019-03-28T19:35:33.213Z,11.80
2019-03-28T19:38:01.457Z,10.63
2019-03-28T19:40:29.984Z,6.97
2019-03-28T19:42:58.785Z,10.23
2019-03-28T19:45:35.536Z,9.90
2019-03-28T19:48:02.506Z,8.70
2019-03-28T19:50:30.955Z,7.93
2019-03-28T19:52:59.422Z,9.37
2019-03-28T19:55:28.746Z,11.07
2019-03-28T19:57:57.944Z,10.43
2019-03-28T20:00:26.606Z,7.60
2019-03-28T20:02:55.292Z,11.60
2019-03-28T20:05:24.017Z,10.60
2019-03-28T20:07:52.545Z,8.57
2019-03-28T20:10:21.864Z,8.90
2019-03-28T20:12:50.763Z,15.63
2019-03-28T20:15:19.314Z,16.53
2019-03-28T20:17:48.059Z,16.47
2019-03-28T20:20:16.834Z,18.40
2019-03-28T20:22:45.373Z,14.30
2019-03-28T20:25:13.820Z,10.47
2019-03-28T20:27:42.315Z,9.00
2019-03-28T20:30:11.262Z,9.10
2019-03-28T20:32:40.129Z,11.20
2019-03-28T20:35:15.273Z,10.57
2019-03-28T20:37:43.717Z,10.23
2019-03-28T20:40:13.109Z,8.43
2019-03-28T20:42:41.578Z,8.13
2019-03-28T20:45:11.138Z,11.00
2019-03-28T20:47:39.774Z,9.67
2019-03-28T20:50:09.319Z,8.80
2019-03-28T20:52:37.825Z,8.40
2019-03-28T20:55:07.970Z,10.30
2019-03-28T20:57:36.435Z,8.27
2019-03-28T21:00:08.493Z,8.77
2019-03-28T21:02:36.697Z,11.67
2019-03-28T21:05:07.006Z,10.50
2019-03-28T21:07:35.466Z,8.47
2019-03-28T21:10:06.105Z,6.53
2019-03-28T21:12:34.608Z,12.60
2019-03-28T21:15:09.216Z,11.13
2019-03-28T21:17:37.691Z,10.50
2019-03-28T21:20:07.465Z,8.77
2019-03-28T21:22:35.908Z,7.50
2019-03-28T21:25:06.265Z,8.87
2019-03-28T21:27:34.706Z,10.40
2019-03-28T21:30:03.456Z,13.07
2019-03-28T21:32:31.894Z,9.50
2019-03-28T21:35:00.354Z,13.70
2019-03-28T21:37:28.805Z,12.73
2019-03-28T21:39:57.271Z,10.10
2019-03-28T21:42:25.703Z,7.23
2019-03-28T21:44:54.163Z,7.43
2019-03-28T21:47:22.623Z,7.57
2019-03-28T21:49:51.078Z,8.70
2019-03-28T21:52:19.532Z,8.90
2019-03-28T21:54:48.002Z,9.17
2019-03-28T21:57:16.441Z,6.90
2019-03-28T21:59:44.909Z,7.03
2019-03-28T22:02:13.366Z,10.87
2019-03-28T22:04:41.814Z,6.77
2019-03-28T22:07:10.286Z,7.90
2019-03-28T22:09:39.834Z,6.83
2019-03-28T22:12:08.457Z,10.47
2019-03-28T22:14:36.935Z,10.83
2019-03-28T22:17:05.432Z,7.20
2019-03-28T22:19:33.967Z,8.50
2019-03-28T22:22:02.429Z,9.27
2019-03-28T22:24:30.899Z,8.57
2019-03-28T22:26:59.331Z,10.53
2019-03-28T22:29:27.780Z,10.53
2019-03-28T22:31:56.907Z,10.20
2019-03-28T22:34:25.531Z,7.53
2019-03-28T22:36:57.580Z,12.00
2019-03-28T22:39:24.201Z,9.37
2019-03-28T22:41:52.706Z,10.03
2019-03-28T22:44:21.165Z,8.97
2019-03-28T22:46:49.607Z,7.30
2019-03-28T22:49:18.113Z,11.20
2019-03-28T22:51:46.551Z,10.80
2019-03-28T22:54:14.989Z,10.23
2019-03-28T22:56:43.466Z,9.80
2019-03-28T22:59:11.907Z,15.67
2019-03-28T23:01:40.445Z,8.07
2019-03-28T23:04:08.888Z,11.50
2019-03-28T23:06:37.326Z,6.93
2019-03-28T23:09:07.016Z,9.40
2019-03-28T23:11:35.469Z,9.07
2019-03-28T23:14:04.072Z,8.57
2019-03-28T23:16:32.507Z,9.57
2019-03-28T23:19:01.211Z,8.07
2019-03-28T23:21:29.687Z,7.87
2019-03-28T23:23:58.196Z,9.27
2019-03-28T23:26:26.653Z,9.80
2019-03-28T23:28:55.182Z,8.60
2019-03-28T23:31:23.621Z,10.23
2019-03-28T23:33:52.053Z,10.23
2019-03-28T23:36:20.496Z,9.60
2019-03-28T23:38:49.056Z,6.73
2019-03-28T23:41:17.534Z,11.27
2019-03-28T23:43:46.119Z,9.37
2019-03-28T23:46:14.562Z,8.03
2019-03-28T23:48:43.048Z,8.47
2019-03-28T23:51:11.518Z,10.97
2019-03-28T23:53:39.987Z,11.80
2019-03-28T23:56:08.447Z,9.30
2019-03-28T23:58:36.968Z,10.90
